createdAt,value
2023-01-07T00:03:49.831Z,1.80
2023-01-07T00:09:03.864Z,3.10
2023-01-07T00:14:10.866Z,2.00
2023-01-07T00:19:18.191Z,2.00
2023-01-07T00:24:24.052Z,4.50
2023-01-07T00:29:30.779Z,3.63
2023-01-07T00:34:41.459Z,2.10
2023-01-07T00:39:47.177Z,6.70
2023-01-07T00:44:52.036Z,1.90
2023-01-07T00:50:00.139Z,3.40
2023-01-07T00:55:06.734Z,2.17
2023-01-07T01:00:14.252Z,1.77
2023-01-07T01:05:28.749Z,1.87
2023-01-07T01:10:34.758Z,2.07
2023-01-07T01:15:44.860Z,1.70
2023-01-07T01:20:57.432Z,2.53
2023-01-07T01:26:05.993Z,2.90
2023-01-07T01:31:15.597Z,2.23
2023-01-07T01:36:32.134Z,1.77
2023-01-07T01:41:47.109Z,1.60
2023-01-07T01:46:51.445Z,1.70
2023-01-07T01:52:06.149Z,2.00
2023-01-07T01:57:12.413Z,1.97
2023-01-07T02:02:23.699Z,1.87
2023-01-07T02:07:34.791Z,2.20
2023-01-07T02:12:50.106Z,1.63
2023-01-07T02:18:24.937Z,1.80
2023-01-07T02:24:03.383Z,1.60
2023-01-07T02:29:43.561Z,1.70
2023-01-07T02:35:00.309Z,1.70
2023-01-07T02:40:17.608Z,2.20
2023-01-07T02:45:30.784Z,2.80
2023-01-07T02:50:46.989Z,1.70
2023-01-07T02:56:15.689Z,2.43
2023-01-07T03:01:37.988Z,1.70
2023-01-07T03:07:06.959Z,1.20
2023-01-07T03:12:18.592Z,1.00
2023-01-07T03:17:45.535Z,1.13
2023-01-07T03:23:04.096Z,1.33
2023-01-07T03:28:37.286Z,0.90
2023-01-07T03:34:00.117Z,2.10
2023-01-07T03:39:08.995Z,0.80
2023-01-07T03:44:14.098Z,1.33
2023-01-07T03:49:33.164Z,1.20
2023-01-07T03:54:47.986Z,1.13
2023-01-07T03:59:53.919Z,4.00
2023-01-07T04:05:12.221Z,1.30
2023-01-07T04:10:23.599Z,1.63
2023-01-07T04:15:37.322Z,1.00
2023-01-07T04:21:03.111Z,1.20
2023-01-07T04:26:16.903Z,2.10
2023-01-07T04:31:26.380Z,0.93
2023-01-07T04:36:44.473Z,1.10
2023-01-07T04:41:54.928Z,1.00
2023-01-07T04:46:59.468Z,2.00
2023-01-07T04:52:22.980Z,0.70
2023-01-07T04:57:32.273Z,1.57
2023-01-07T05:02:38.071Z,1.37
2023-01-07T05:07:44.461Z,0.90
2023-01-07T05:12:53.026Z,0.90
2023-01-07T05:17:57.639Z,0.93
2023-01-07T05:23:07.581Z,0.90
2023-01-07T05:28:14.397Z,0.80
2023-01-07T05:33:23.065Z,1.00
2023-01-07T05:38:33.612Z,0.80
2023-01-07T05:43:43.217Z,0.70
2023-01-07T05:48:49.593Z,0.80
2023-01-07T05:53:53.588Z,2.30
2023-01-07T05:59:12.724Z,0.70
2023-01-07T06:04:20.140Z,0.60
2023-01-07T06:09:29.741Z,2.63
2023-01-07T06:14:55.965Z,1.03
2023-01-07T06:20:05.089Z,1.23
2023-01-07T06:25:17.339Z,1.17
2023-01-07T06:30:23.809Z,1.10
2023-01-07T06:35:29.915Z,1.23
2023-01-07T06:46:31.343Z,0.83
2023-01-07T06:51:37.415Z,1.27
2023-01-07T06:56:45.297Z,1.53
2023-01-07T07:02:02.180Z,0.70
2023-01-07T07:07:07.960Z,1.10
2023-01-07T07:12:25.899Z,1.00
2023-01-07T07:17:38.722Z,0.80
2023-01-07T07:22:51.134Z,0.70
2023-01-07T07:27:54.680Z,2.30
2023-01-07T07:33:04.209Z,1.47
2023-01-07T07:38:10.979Z,0.90
2023-01-07T07:43:15.650Z,1.00
2023-01-07T07:48:26.643Z,1.30
2023-01-07T07:53:32.926Z,1.07
2023-01-07T07:58:47.182Z,0.70
2023-01-07T08:03:57.311Z,1.53
2023-01-07T08:09:03.935Z,1.43
2023-01-07T08:14:10.405Z,1.53
2023-01-07T08:19:18.515Z,1.03
2023-01-07T08:24:26.478Z,1.37
2023-01-07T08:29:41.654Z,0.83
2023-01-07T08:35:09.502Z,2.77
2023-01-07T08:40:15.710Z,2.17
2023-01-07T08:45:24.281Z,1.10
2023-01-07T08:50:35.594Z,1.00
2023-01-07T08:55:45.659Z,1.10
2023-01-07T09:00:52.474Z,2.37
2023-01-07T09:06:04.063Z,1.10
2023-01-07T09:11:11.845Z,0.93
2023-01-07T09:16:25.306Z,1.10
2023-01-07T09:21:32.864Z,2.03
2023-01-07T09:26:38.757Z,0.97
2023-01-07T09:31:48.856Z,2.80
2023-01-07T09:37:04.477Z,0.77
2023-01-07T09:42:30.559Z,1.77
2023-01-07T09:47:47.353Z,0.93
2023-01-07T09:53:06.308Z,1.90
2023-01-07T09:58:17.341Z,0.80
2023-01-07T10:03:33.344Z,1.17
2023-01-07T10:08:58.355Z,0.50
2023-01-07T10:14:27.877Z,0.80
2023-01-07T10:19:42.225Z,1.00
2023-01-07T10:24:54.836Z,1.17
2023-01-07T10:30:03.928Z,0.80
2023-01-07T10:35:19.549Z,0.60
2023-01-07T10:40:33.077Z,1.00
2023-01-07T10:46:00.600Z,1.05
2023-01-07T10:51:33.568Z,1.27
2023-01-07T10:57:02.042Z,0.60
2023-01-07T11:02:20.038Z,2.20
2023-01-07T11:07:36.350Z,1.25
2023-01-07T11:13:04.292Z,1.40
2023-01-07T11:18:25.209Z,0.63
2023-01-07T11:23:35.707Z,2.30
2023-01-07T11:28:57.834Z,0.73
2023-01-07T11:34:05.153Z,0.73
2023-01-07T11:39:23.768Z,0.97
2023-01-07T11:44:30.280Z,0.50
2023-01-07T11:49:51.280Z,0.43
2023-01-07T11:55:07.349Z,1.35
2023-01-07T12:00:18.895Z,0.80
2023-01-07T12:05:29.841Z,1.05
2023-01-07T12:10:44.027Z,0.40
2023-01-07T12:16:01.597Z,2.00
2023-01-07T12:21:27.903Z,1.08
2023-01-07T12:26:44.328Z,0.70
2023-01-07T12:32:12.834Z,0.80
2023-01-07T12:37:36.587Z,0.93
2023-01-07T12:42:54.949Z,1.23
2023-01-07T12:48:06.787Z,0.60
2023-01-07T12:53:20.533Z,2.17
2023-01-07T12:58:46.440Z,1.45
2023-01-07T13:04:06.150Z,1.35
2023-01-07T13:09:24.989Z,0.80
2023-01-07T13:14:35.940Z,0.70
2023-01-07T13:19:48.814Z,0.77
2023-01-07T13:25:13.732Z,1.15
2023-01-07T13:30:26.245Z,1.97
2023-01-07T13:35:47.366Z,0.90
2023-01-07T13:41:14.884Z,0.80
2023-01-07T13:46:27.884Z,0.90
2023-01-07T13:51:38.524Z,0.70
2023-01-07T13:57:07.074Z,0.80
2023-01-07T14:02:20.270Z,0.63
2023-01-07T14:07:27.927Z,1.13
2023-01-07T14:13:17.961Z,1.20
2023-01-07T14:18:55.428Z,1.47
2023-01-07T14:24:35.831Z,1.47
2023-01-07T14:29:54.290Z,1.70
2023-01-07T14:35:15.597Z,1.33
2023-01-07T14:41:18.638Z,1.70
2023-01-07T14:46:55.900Z,1.40
2023-01-07T14:52:07.999Z,1.42
2023-01-07T14:57:24.527Z,2.60
2023-01-07T15:03:16.248Z,2.65
2023-01-07T15:08:40.457Z,1.95
2023-01-07T15:14:10.387Z,2.50
2023-01-07T15:19:16.499Z,1.40
2023-01-07T15:24:28.671Z,1.60
2023-01-07T15:29:46.780Z,3.00
2023-01-07T15:35:00.720Z,3.23
2023-01-07T15:40:18.271Z,1.33
2023-01-07T15:45:25.811Z,1.97
2023-01-07T15:50:38.581Z,2.10
2023-01-07T15:55:47.201Z,3.00
2023-01-07T16:00:54.070Z,1.57
2023-01-07T16:06:02.452Z,1.60
2023-01-07T16:11:09.475Z,1.77
2023-01-07T16:16:34.760Z,1.67
2023-01-07T16:21:53.181Z,3.00
2023-01-07T16:27:05.274Z,1.50
2023-01-07T16:32:18.501Z,1.57
2023-01-07T16:37:35.106Z,1.57
2023-01-07T16:43:03.888Z,3.57
2023-01-07T16:48:24.436Z,2.93
2023-01-07T16:53:39.439Z,2.27
2023-01-07T16:58:52.947Z,2.30
2023-01-07T17:04:02.927Z,3.43
2023-01-07T17:09:19.961Z,2.57
2023-01-07T17:14:55.850Z,3.30
2023-01-07T17:20:19.238Z,2.63
2023-01-07T17:25:29.622Z,5.40
2023-01-07T17:31:08.968Z,5.13
2023-01-07T17:36:20.629Z,2.07
2023-01-07T17:41:48.879Z,2.10
2023-01-07T17:46:58.072Z,2.30
2023-01-07T17:52:03.076Z,3.50
2023-01-07T17:57:13.558Z,13.47
2023-01-07T18:02:20.166Z,4.97
2023-01-07T18:07:46.484Z,2.13
2023-01-07T18:13:00.229Z,2.70
2023-01-07T18:18:04.480Z,5.07
2023-01-07T18:23:14.453Z,2.27
2023-01-07T18:28:30.363Z,3.90
2023-01-07T18:33:39.186Z,2.47
2023-01-07T18:38:45.979Z,2.77
2023-01-07T18:43:55.253Z,2.80
2023-01-07T18:49:04.289Z,3.10
2023-01-07T18:54:10.481Z,2.20
2023-01-07T18:59:33.745Z,3.57
2023-01-07T19:04:45.892Z,2.73
2023-01-07T19:09:53.021Z,2.90
2023-01-07T19:15:07.536Z,2.33
2023-01-07T19:20:19.769Z,3.40
2023-01-07T19:25:24.298Z,3.37
2023-01-07T19:30:38.870Z,2.53
2023-01-07T19:35:44.641Z,6.57
2023-01-07T19:40:54.946Z,3.13
2023-01-07T19:46:04.417Z,3.23
2023-01-07T19:51:22.178Z,5.23
2023-01-07T19:56:38.328Z,6.10
2023-01-07T20:01:46.326Z,4.77
2023-01-07T20:06:52.642Z,3.20
2023-01-07T20:12:03.403Z,4.30
2023-01-07T20:17:13.403Z,2.40
2023-01-07T20:22:20.604Z,3.60
2023-01-07T20:27:26.656Z,2.53
2023-01-07T20:32:34.133Z,4.87
2023-01-07T20:37:40.870Z,3.20
2023-01-07T20:42:47.988Z,3.83
2023-01-07T20:48:03.105Z,3.60
2023-01-07T20:53:15.729Z,2.87
2023-01-07T20:58:29.723Z,4.00
2023-01-07T21:03:42.103Z,3.80
2023-01-07T21:08:55.518Z,3.00
2023-01-07T21:14:15.239Z,2.73
2023-01-07T21:19:22.528Z,4.30
2023-01-07T21:24:34.651Z,5.27
2023-01-07T21:29:44.360Z,3.80
2023-01-07T21:34:59.796Z,4.00
2023-01-07T21:40:04.451Z,3.60
2023-01-07T21:45:10.740Z,3.67
2023-01-07T21:50:17.960Z,6.40
2023-01-07T21:55:28.286Z,4.37
2023-01-07T22:00:46.402Z,4.20
2023-01-07T22:06:07.669Z,4.17
2023-01-07T22:11:18.166Z,3.97
2023-01-07T22:16:24.091Z,4.73
2023-01-07T22:21:34.325Z,4.33
2023-01-07T22:26:39.058Z,4.93
2023-01-07T22:31:51.803Z,4.53
2023-01-07T22:37:08.242Z,13.70
2023-01-07T22:42:21.324Z,4.50
2023-01-07T22:47:34.539Z,4.30
2023-01-07T22:52:50.830Z,5.33
2023-01-07T22:58:02.345Z,4.90
2023-01-07T23:03:11.970Z,6.17
2023-01-07T23:08:19.263Z,5.30
2023-01-07T23:13:34.055Z,4.60
2023-01-07T23:18:41.007Z,6.10
2023-01-07T23:24:03.452Z,4.90
2023-01-07T23:29:09.092Z,6.00
2023-01-07T23:34:14.631Z,6.67
2023-01-07T23:39:29.823Z,5.63
2023-01-07T23:44:42.328Z,6.33
2023-01-07T23:49:48.863Z,6.33
2023-01-07T23:54:57.012Z,4.40
